createdAt,value
2018-03-21T00:01:29.861Z,5.41
2018-03-21T00:03:57.946Z,5.27
2018-03-21T00:06:25.422Z,5.54
2018-03-21T00:08:52.898Z,5.36
2018-03-21T00:11:20.525Z,4.64
2018-03-21T00:13:47.974Z,4.93
2018-03-21T00:16:15.435Z,5.25
2018-03-21T00:18:43.318Z,4.87
2018-03-21T00:21:10.794Z,5.12
2018-03-21T00:23:38.257Z,5.97
2018-03-21T00:26:06.006Z,6.01
2018-03-21T00:28:33.474Z,5.60
2018-03-21T00:31:00.947Z,5.36
2018-03-21T00:33:28.713Z,5.14
2018-03-21T00:35:56.181Z,5.22
2018-03-21T00:38:23.649Z,4.75
2018-03-21T00:40:51.395Z,5.14
2018-03-21T00:43:18.856Z,5.53
2018-03-21T00:45:46.315Z,5.60
2018-03-21T00:48:14.938Z,5.98
2018-03-21T00:50:42.423Z,6.23
2018-03-21T00:53:09.879Z,5.97
2018-03-21T00:55:37.674Z,6.01
2018-03-21T00:58:05.151Z,5.60
2018-03-21T01:00:32.610Z,5.86
2018-03-21T01:03:00.254Z,5.63
2018-03-21T01:05:29.206Z,5.52
2018-03-21T01:07:56.663Z,4.91
2018-03-21T01:10:24.509Z,5.31
2018-03-21T01:12:51.977Z,5.48
2018-03-21T01:15:19.436Z,5.20
2018-03-21T01:17:47.091Z,5.03
2018-03-21T01:20:14.560Z,5.12
2018-03-21T01:22:42.025Z,5.54
2018-03-21T01:25:09.666Z,5.53
2018-03-21T01:27:37.117Z,5.75
2018-03-21T01:30:04.587Z,5.75
2018-03-21T01:32:32.354Z,6.36
2018-03-21T01:34:59.809Z,6.52
2018-03-21T01:37:27.268Z,6.40
2018-03-21T01:39:55.030Z,6.88
2018-03-21T01:42:22.507Z,6.56
2018-03-21T01:44:49.964Z,6.55
2018-03-21T01:47:18.038Z,6.89
2018-03-21T01:49:47.710Z,6.45
2018-03-21T01:52:15.169Z,6.06
2018-03-21T01:54:42.874Z,6.19
2018-03-21T01:57:10.337Z,5.93
2018-03-21T01:59:37.809Z,5.42
2018-03-21T02:02:05.857Z,5.30
2018-03-21T02:04:33.312Z,5.71
2018-03-21T02:07:00.784Z,5.68
2018-03-21T02:09:28.417Z,5.92
2018-03-21T02:11:55.885Z,6.27
2018-03-21T02:14:23.342Z,6.66
2018-03-21T02:16:51.225Z,6.39
2018-03-21T02:19:18.697Z,6.40
2018-03-21T02:21:46.146Z,6.43
2018-03-21T02:24:13.913Z,6.30
2018-03-21T02:26:41.428Z,6.62
2018-03-21T02:29:08.851Z,6.50
2018-03-21T02:31:37.450Z,7.76
2018-03-21T02:34:04.910Z,6.99
2018-03-21T02:36:32.373Z,7.27
2018-03-21T02:39:00.671Z,6.79
2018-03-21T02:41:28.132Z,6.05
2018-03-21T02:43:55.593Z,6.54
2018-03-21T02:46:23.530Z,6.32
2018-03-21T02:48:50.994Z,6.56
2018-03-21T02:51:18.828Z,7.12
2018-03-21T02:53:46.506Z,6.64
2018-03-21T02:56:13.978Z,6.30
2018-03-21T02:58:41.443Z,6.27
2018-03-21T03:01:09.496Z,6.71
2018-03-21T03:03:36.958Z,7.14
2018-03-21T03:06:04.930Z,7.23
2018-03-21T03:08:32.812Z,6.81
2018-03-21T03:11:00.311Z,7.55
2018-03-21T03:13:27.783Z,7.24
2018-03-21T03:15:56.111Z,7.03
2018-03-21T03:18:23.575Z,7.34
2018-03-21T03:20:51.043Z,7.40
2018-03-21T03:23:18.796Z,7.59
2018-03-21T03:25:46.266Z,7.54
2018-03-21T03:28:13.717Z,7.87
2018-03-21T03:30:41.835Z,7.79
2018-03-21T03:33:09.296Z,8.06
2018-03-21T03:35:36.756Z,8.59
2018-03-21T03:38:04.777Z,8.83
2018-03-21T03:40:32.231Z,9.03
2018-03-21T03:42:59.685Z,7.95
2018-03-21T03:45:27.489Z,8.49
2018-03-21T03:47:54.953Z,8.14
2018-03-21T03:50:22.413Z,8.25
2018-03-21T03:52:50.789Z,8.10
2018-03-21T03:55:18.258Z,7.68
2018-03-21T03:57:45.727Z,7.67
2018-03-21T04:00:13.370Z,7.47
2018-03-21T04:02:40.825Z,7.35
2018-03-21T04:05:08.320Z,8.08
2018-03-21T04:07:36.143Z,8.30
2018-03-21T04:10:03.609Z,7.44
2018-03-21T04:12:31.074Z,7.72
2018-03-21T04:14:58.840Z,7.84
2018-03-21T04:17:26.294Z,8.37
2018-03-21T04:19:53.761Z,7.66
2018-03-21T04:22:21.830Z,8.75
2018-03-21T04:24:49.293Z,7.85
2018-03-21T04:27:16.761Z,7.96
2018-03-21T04:29:44.520Z,8.60
2018-03-21T04:32:11.977Z,7.90
2018-03-21T04:34:39.457Z,7.78
2018-03-21T04:37:07.205Z,7.83
2018-03-21T04:39:34.669Z,7.87
2018-03-21T04:42:02.145Z,7.41
2018-03-21T04:44:29.792Z,7.46
2018-03-21T04:46:57.262Z,7.80
2018-03-21T04:49:24.721Z,7.65
2018-03-21T04:51:52.577Z,7.65
2018-03-21T04:54:20.418Z,7.60
2018-03-21T04:56:47.886Z,7.68
2018-03-21T04:59:16.144Z,7.94
2018-03-21T05:01:43.602Z,7.48
2018-03-21T05:04:11.065Z,7.95
2018-03-21T05:06:38.874Z,7.89
2018-03-21T05:09:06.334Z,7.38
2018-03-21T05:11:33.797Z,7.42
2018-03-21T05:14:01.551Z,7.58
2018-03-21T05:16:29.015Z,6.92
2018-03-21T05:18:56.483Z,6.92
2018-03-21T05:21:24.250Z,7.15
2018-03-21T05:23:51.709Z,7.04
2018-03-21T05:26:19.166Z,6.67
2018-03-21T05:28:46.932Z,6.57
2018-03-21T05:31:14.394Z,7.18
2018-03-21T05:33:41.867Z,6.60
2018-03-21T05:36:09.615Z,7.49
2018-03-21T05:38:37.072Z,7.22
2018-03-21T05:41:04.532Z,6.84
2018-03-21T05:43:32.309Z,7.25
2018-03-21T05:45:59.776Z,7.11
2018-03-21T05:48:27.238Z,7.47
2018-03-21T05:50:54.989Z,7.59
2018-03-21T05:53:22.454Z,8.26
2018-03-21T05:55:50.300Z,7.62
2018-03-21T05:58:18.295Z,7.59
2018-03-21T06:00:45.758Z,7.73
2018-03-21T06:03:13.219Z,7.74
2018-03-21T06:05:40.878Z,7.45
2018-03-21T06:08:08.344Z,7.64
2018-03-21T06:10:35.810Z,7.74
2018-03-21T06:13:03.410Z,8.07
2018-03-21T06:15:30.866Z,7.64
2018-03-21T06:17:58.326Z,6.84
2018-03-21T06:20:26.056Z,7.66
2018-03-21T06:22:53.508Z,7.38
2018-03-21T06:25:20.995Z,7.22
2018-03-21T06:27:48.744Z,6.99
2018-03-21T06:30:16.205Z,6.92
2018-03-21T06:32:43.660Z,6.47
2018-03-21T06:35:11.419Z,7.43
2018-03-21T06:37:38.894Z,7.31
2018-03-21T06:40:06.348Z,8.20
2018-03-21T06:42:34.123Z,7.57
2018-03-21T06:48:32.700Z,7.62
2018-03-21T06:51:00.157Z,7.66
2018-03-21T06:53:27.618Z,8.45
2018-03-21T06:55:55.312Z,8.71
2018-03-21T06:58:22.803Z,7.71
2018-03-21T07:00:50.256Z,8.28
2018-03-21T07:03:18.305Z,8.08
2018-03-21T07:05:45.773Z,8.53
2018-03-21T07:08:13.239Z,8.89
2018-03-21T07:10:40.989Z,8.64
2018-03-21T07:13:08.448Z,8.10
2018-03-21T07:15:48.169Z,8.13
2018-03-21T07:18:15.635Z,8.31
2018-03-21T07:20:43.093Z,6.96
2018-03-21T07:23:10.902Z,7.01
2018-03-21T07:25:38.389Z,7.29
2018-03-21T07:28:05.860Z,7.63
2018-03-21T07:30:33.874Z,7.62
2018-03-21T07:33:01.337Z,7.23
2018-03-21T07:35:28.803Z,7.45
2018-03-21T07:37:56.560Z,8.25
2018-03-21T07:40:24.037Z,9.02
2018-03-21T07:42:51.488Z,8.57
2018-03-21T07:45:19.255Z,9.20
2018-03-21T07:47:46.730Z,8.24
2018-03-21T07:50:14.184Z,8.55
2018-03-21T07:52:41.934Z,8.87
2018-03-21T07:55:09.391Z,8.71
2018-03-21T07:57:38.779Z,8.91
2018-03-21T08:00:06.642Z,9.15
2018-03-21T08:02:34.093Z,8.94
2018-03-21T08:05:01.640Z,8.47
2018-03-21T08:07:29.777Z,8.87
2018-03-21T08:09:57.245Z,8.57
2018-03-21T08:12:24.720Z,8.73
2018-03-21T08:14:52.460Z,9.34
2018-03-21T08:17:19.920Z,9.19
2018-03-21T08:19:47.384Z,9.79
2018-03-21T08:22:15.666Z,10.36
2018-03-21T08:24:43.123Z,9.39
2018-03-21T08:27:10.579Z,8.61
2018-03-21T08:29:38.456Z,9.29
2018-03-21T08:32:05.933Z,9.93
2018-03-21T08:34:33.384Z,9.86
2018-03-21T08:37:01.130Z,9.00
2018-03-21T08:39:28.591Z,9.48
2018-03-21T08:41:56.065Z,8.91
2018-03-21T08:44:23.833Z,8.63
2018-03-21T08:46:51.286Z,8.64
2018-03-21T08:49:18.748Z,8.62
2018-03-21T08:51:46.493Z,8.66
2018-03-21T08:54:13.952Z,8.54
2018-03-21T08:56:41.441Z,8.75
2018-03-21T08:59:09.550Z,8.17
2018-03-21T09:01:37.006Z,8.20
2018-03-21T09:04:04.470Z,8.93
2018-03-21T09:06:32.205Z,9.70
2018-03-21T09:08:59.660Z,9.24
2018-03-21T09:11:27.120Z,9.90
2018-03-21T09:13:54.881Z,9.84
2018-03-21T09:16:22.339Z,11.01
2018-03-21T09:18:49.809Z,10.41
2018-03-21T09:21:17.557Z,9.10
2018-03-21T09:23:45.029Z,10.15
2018-03-21T09:26:12.498Z,10.59
2018-03-21T09:28:40.561Z,9.18
2018-03-21T09:31:08.023Z,10.46
2018-03-21T09:33:35.478Z,11.14
2018-03-21T09:36:03.255Z,9.74
2018-03-21T09:38:30.718Z,9.55
2018-03-21T09:40:58.178Z,9.90
2018-03-21T09:43:25.932Z,10.08
2018-03-21T09:45:53.393Z,9.52
2018-03-21T09:48:20.859Z,9.39
2018-03-21T09:50:48.932Z,9.80
2018-03-21T09:53:16.433Z,9.78
2018-03-21T09:55:43.897Z,9.03
2018-03-21T09:58:11.611Z,8.62
2018-03-21T10:00:39.583Z,8.61
2018-03-21T10:03:07.061Z,8.57
2018-03-21T10:05:34.917Z,8.61
2018-03-21T10:08:02.370Z,8.99
2018-03-21T10:10:29.881Z,8.99
2018-03-21T10:12:57.594Z,8.92
2018-03-21T10:15:25.057Z,9.75
2018-03-21T10:17:52.525Z,10.27
2018-03-21T10:20:20.295Z,10.03
2018-03-21T10:22:47.752Z,10.39
2018-03-21T10:25:15.229Z,10.02
2018-03-21T10:27:42.973Z,9.89
2018-03-21T10:30:10.430Z,10.12
2018-03-21T10:32:37.898Z,9.91
2018-03-21T10:35:05.674Z,10.78
2018-03-21T10:37:33.144Z,11.22
2018-03-21T10:40:00.605Z,10.71
2018-03-21T10:42:29.264Z,10.59
2018-03-21T10:44:56.794Z,10.83
2018-03-21T10:47:24.210Z,11.09
2018-03-21T10:49:51.966Z,10.15
2018-03-21T10:52:19.424Z,11.06
2018-03-21T10:54:46.892Z,11.44
2018-03-21T10:57:14.626Z,10.28
2018-03-21T10:59:42.084Z,10.65
2018-03-21T11:02:14.821Z,10.14
2018-03-21T11:04:42.294Z,10.34
2018-03-21T11:07:09.760Z,10.30
2018-03-21T11:09:38.080Z,11.01
2018-03-21T11:12:05.542Z,10.53
2018-03-21T11:14:33.013Z,10.43
2018-03-21T11:17:00.739Z,11.18
2018-03-21T11:19:28.197Z,10.17
2018-03-21T11:21:55.671Z,10.93
2018-03-21T11:24:23.340Z,10.21
2018-03-21T11:26:50.805Z,11.27
2018-03-21T11:29:18.272Z,12.00
2018-03-21T11:31:46.457Z,10.86
2018-03-21T11:34:13.914Z,11.64
2018-03-21T11:36:41.384Z,11.69
2018-03-21T11:39:09.475Z,11.04
2018-03-21T11:41:36.937Z,11.43
2018-03-21T11:44:04.460Z,12.01
2018-03-21T11:46:32.191Z,11.96
2018-03-21T11:48:59.677Z,11.90
2018-03-21T11:51:27.157Z,10.73
2018-03-21T11:53:55.093Z,11.15
2018-03-21T11:56:22.563Z,11.59
2018-03-21T11:58:50.045Z,11.95
2018-03-21T12:01:19.348Z,12.60
2018-03-21T12:03:47.206Z,10.04
2018-03-21T12:06:14.674Z,11.24
2018-03-21T12:08:42.789Z,12.26
2018-03-21T12:11:10.136Z,11.27
2018-03-21T12:13:37.610Z,11.50
2018-03-21T12:16:05.666Z,11.29
2018-03-21T12:18:33.144Z,11.71
2018-03-21T12:21:00.616Z,11.42
2018-03-21T12:23:28.337Z,11.93
2018-03-21T12:25:55.792Z,11.46
2018-03-21T12:28:23.253Z,11.97
2018-03-21T12:30:51.343Z,12.88
2018-03-21T12:33:18.807Z,14.71
2018-03-21T12:35:46.279Z,14.60
2018-03-21T12:38:14.057Z,14.25
2018-03-21T12:40:41.491Z,15.42
2018-03-21T12:43:08.968Z,17.41
2018-03-21T12:45:36.716Z,16.33
2018-03-21T12:48:04.182Z,14.58
2018-03-21T12:50:31.642Z,12.40
2018-03-21T12:52:59.397Z,11.66
2018-03-21T12:55:26.857Z,11.16
2018-03-21T12:57:54.322Z,10.51
2018-03-21T13:00:22.075Z,11.31
2018-03-21T13:02:49.531Z,11.50
2018-03-21T13:05:17.683Z,11.92
2018-03-21T13:07:45.494Z,12.26
2018-03-21T13:10:12.921Z,12.74
2018-03-21T13:12:40.377Z,15.53
2018-03-21T13:15:08.369Z,13.18
2018-03-21T13:17:35.821Z,11.10
2018-03-21T13:20:03.277Z,11.30
2018-03-21T13:22:31.063Z,12.43
2018-03-21T13:24:58.517Z,14.13
2018-03-21T13:27:26.481Z,12.63
2018-03-21T13:29:54.373Z,12.85
2018-03-21T13:32:21.847Z,11.54
2018-03-21T13:34:49.302Z,12.38
2018-03-21T13:37:17.059Z,10.43
2018-03-21T13:39:44.526Z,10.12
2018-03-21T13:42:11.988Z,11.12
2018-03-21T13:44:40.042Z,11.70
2018-03-21T13:47:07.558Z,12.29
2018-03-21T13:49:34.978Z,12.68
2018-03-21T13:52:02.781Z,16.15
2018-03-21T13:54:30.242Z,13.39
2018-03-21T13:56:59.077Z,14.31
2018-03-21T13:59:26.964Z,15.59
2018-03-21T14:01:54.434Z,13.79
2018-03-21T14:04:21.893Z,14.78
2018-03-21T14:06:50.189Z,14.99
2018-03-21T14:09:17.658Z,15.00
2018-03-21T14:11:45.128Z,13.38
2018-03-21T14:14:12.941Z,15.01
2018-03-21T14:16:40.402Z,15.30
2018-03-21T14:19:07.880Z,12.58
2018-03-21T14:21:35.628Z,14.18
2018-03-21T14:24:03.079Z,14.87
2018-03-21T14:26:30.521Z,14.90
2018-03-21T14:28:58.329Z,16.76
2018-03-21T14:31:25.785Z,14.42
2018-03-21T14:33:53.680Z,12.38
2018-03-21T14:36:21.619Z,13.04
2018-03-21T14:38:49.063Z,12.16
2018-03-21T14:41:16.522Z,14.22
2018-03-21T14:43:44.312Z,13.89
2018-03-21T14:46:11.763Z,15.68
2018-03-21T14:48:39.222Z,15.14
2018-03-21T14:51:06.994Z,12.75
2018-03-21T14:53:34.466Z,15.39
2018-03-21T14:56:01.935Z,14.04
2018-03-21T14:58:29.678Z,13.72
2018-03-21T15:00:57.154Z,14.98
2018-03-21T15:03:24.607Z,12.84
2018-03-21T15:05:52.682Z,12.59
2018-03-21T15:08:20.513Z,12.29
2018-03-21T15:10:47.962Z,12.87
2018-03-21T15:13:15.682Z,12.24
2018-03-21T15:15:43.138Z,11.86
2018-03-21T15:18:10.593Z,10.60
2018-03-21T15:20:38.353Z,11.59
2018-03-21T15:23:05.817Z,10.86
2018-03-21T15:25:33.277Z,10.29
2018-03-21T15:28:01.069Z,13.29
2018-03-21T15:30:28.517Z,13.54
2018-03-21T15:32:56.001Z,15.03
2018-03-21T15:35:23.730Z,15.07
2018-03-21T15:37:51.183Z,14.89
2018-03-21T15:40:18.646Z,14.69
2018-03-21T15:42:46.418Z,15.53
2018-03-21T15:45:13.903Z,11.97
2018-03-21T15:47:41.344Z,13.07
2018-03-21T15:50:09.129Z,14.95
2018-03-21T15:52:36.586Z,12.87
2018-03-21T15:55:04.045Z,13.67
2018-03-21T15:57:31.651Z,15.47
2018-03-21T15:59:59.105Z,16.39
2018-03-21T16:02:26.552Z,14.50
2018-03-21T16:04:54.481Z,13.53
2018-03-21T16:07:21.957Z,13.81
2018-03-21T16:09:49.781Z,12.77
2018-03-21T16:12:17.795Z,12.04
2018-03-21T16:14:45.253Z,10.06
2018-03-21T16:17:12.749Z,10.42
2018-03-21T16:19:40.559Z,10.43
2018-03-21T16:22:08.012Z,10.15
2018-03-21T16:24:35.478Z,11.39
2018-03-21T16:27:03.285Z,11.62
2018-03-21T16:29:30.751Z,10.12
2018-03-21T16:31:58.205Z,9.92
2018-03-21T16:34:26.159Z,10.06
2018-03-21T16:36:53.643Z,10.57
2018-03-21T16:39:21.103Z,11.10
2018-03-21T16:41:48.833Z,10.55
2018-03-21T16:44:16.302Z,10.89
2018-03-21T16:46:43.765Z,10.45
2018-03-21T16:49:11.533Z,10.63
2018-03-21T16:51:38.993Z,10.98
2018-03-21T16:54:06.462Z,10.82
2018-03-21T16:56:34.218Z,10.97
2018-03-21T16:59:01.722Z,10.24
2018-03-21T17:01:29.187Z,10.26
2018-03-21T17:03:57.023Z,10.41
2018-03-21T17:06:24.473Z,10.89
2018-03-21T17:08:51.946Z,10.87
2018-03-21T17:11:20.516Z,10.85
2018-03-21T17:13:47.972Z,10.51
2018-03-21T17:16:15.453Z,10.88
2018-03-21T17:18:43.215Z,11.02
2018-03-21T17:21:10.813Z,10.73
2018-03-21T17:23:38.267Z,10.46
2018-03-21T17:26:06.239Z,10.32
2018-03-21T17:28:33.701Z,10.09
2018-03-21T17:31:01.175Z,10.18
2018-03-21T17:33:28.895Z,10.13
2018-03-21T17:35:56.344Z,9.74
2018-03-21T17:38:23.801Z,9.48
2018-03-21T17:40:51.565Z,9.47
2018-03-21T17:43:19.017Z,9.17
2018-03-21T17:45:46.470Z,8.55
2018-03-21T17:48:14.572Z,8.63
2018-03-21T17:50:42.021Z,8.39
2018-03-21T17:53:09.471Z,9.16
2018-03-21T17:55:37.316Z,9.14
2018-03-21T17:58:04.808Z,9.19
2018-03-21T18:00:32.342Z,8.77
2018-03-21T18:03:00.207Z,8.65
2018-03-21T18:05:27.679Z,9.22
2018-03-21T18:07:55.137Z,9.03
2018-03-21T18:10:22.949Z,8.72
2018-03-21T18:12:51.998Z,8.77
2018-03-21T18:15:19.446Z,8.71
2018-03-21T18:17:47.162Z,9.15
2018-03-21T18:20:15.472Z,8.75
2018-03-21T18:22:42.944Z,8.81
2018-03-21T18:25:11.345Z,8.57
2018-03-21T18:27:38.853Z,8.55
2018-03-21T18:30:06.368Z,9.09
2018-03-21T18:32:34.701Z,9.09
2018-03-21T18:35:02.257Z,9.22
2018-03-21T18:37:29.712Z,8.51
2018-03-21T18:39:57.682Z,8.47
2018-03-21T18:42:25.138Z,8.29
2018-03-21T18:44:52.599Z,8.21
2018-03-21T18:47:20.210Z,8.51
2018-03-21T18:49:47.677Z,8.81
2018-03-21T18:52:15.125Z,9.12
2018-03-21T18:54:42.865Z,8.72
2018-03-21T18:57:10.318Z,8.82
2018-03-21T18:59:38.524Z,8.93
2018-03-21T19:02:06.360Z,8.54
2018-03-21T19:04:33.854Z,8.75
2018-03-21T19:07:01.355Z,8.60
2018-03-21T19:09:29.357Z,9.09
2018-03-21T19:11:56.879Z,8.63
2018-03-21T19:14:25.091Z,7.88
2018-03-21T19:16:52.691Z,7.79
2018-03-21T19:19:20.296Z,8.07
2018-03-21T19:21:47.797Z,8.21
2018-03-21T19:24:15.656Z,8.49
2018-03-21T19:26:43.142Z,8.63
2018-03-21T19:29:10.636Z,7.82
2018-03-21T19:31:38.485Z,8.53
2018-03-21T19:34:05.955Z,8.64
2018-03-21T19:36:33.417Z,8.84
2018-03-21T19:39:01.321Z,8.63
2018-03-21T19:41:28.814Z,8.52
2018-03-21T19:43:56.324Z,7.90
2018-03-21T19:46:26.058Z,8.14
2018-03-21T19:48:53.665Z,8.55
2018-03-21T19:51:21.210Z,8.30
2018-03-21T19:53:49.155Z,8.67
2018-03-21T19:56:16.652Z,8.86
2018-03-21T19:58:44.204Z,8.27
2018-03-21T20:01:12.058Z,8.68
2018-03-21T20:03:39.907Z,8.77
2018-03-21T20:06:07.740Z,7.86
2018-03-21T20:08:37.970Z,7.90
2018-03-21T20:11:05.609Z,8.54
2018-03-21T20:13:33.065Z,8.88
2018-03-21T20:16:01.269Z,9.05
2018-03-21T20:18:28.825Z,8.72
2018-03-21T20:20:56.308Z,8.95
2018-03-21T20:23:24.164Z,8.68
2018-03-21T20:25:51.634Z,8.53
2018-03-21T20:28:19.084Z,9.10
2018-03-21T20:30:46.893Z,8.89
2018-03-21T20:33:14.357Z,9.45
2018-03-21T20:35:41.826Z,8.75
2018-03-21T20:38:09.865Z,8.56
2018-03-21T20:40:37.329Z,8.45
2018-03-21T20:43:05.388Z,7.39
2018-03-21T20:45:33.181Z,7.06
2018-03-21T20:48:00.668Z,7.78
2018-03-21T20:50:28.131Z,8.79
2018-03-21T20:52:55.980Z,8.99
2018-03-21T20:55:23.474Z,9.07
2018-03-21T20:57:50.947Z,8.88
2018-03-21T21:00:18.869Z,8.48
2018-03-21T21:02:46.335Z,8.31
2018-03-21T21:05:13.894Z,7.81
2018-03-21T21:07:41.832Z,8.04
2018-03-21T21:10:09.285Z,8.19
2018-03-21T21:12:36.748Z,8.16
2018-03-21T21:15:04.854Z,8.90
2018-03-21T21:17:33.929Z,9.14
2018-03-21T21:20:01.397Z,8.92
2018-03-21T21:22:29.156Z,8.47
2018-03-21T21:24:56.624Z,8.80
2018-03-21T21:27:24.092Z,9.09
2018-03-21T21:29:51.771Z,8.61
2018-03-21T21:32:19.236Z,8.06
2018-03-21T21:34:46.691Z,8.27
2018-03-21T21:37:15.069Z,8.26
2018-03-21T21:39:42.526Z,8.17
2018-03-21T21:42:10.036Z,8.13
2018-03-21T21:44:38.369Z,7.89
2018-03-21T21:47:05.824Z,8.16
2018-03-21T21:49:33.277Z,7.59
2018-03-21T21:52:01.094Z,7.77
2018-03-21T21:54:28.540Z,7.33
2018-03-21T21:56:55.998Z,7.68
2018-03-21T21:59:23.742Z,7.53
2018-03-21T22:01:51.209Z,7.35
2018-03-21T22:04:18.662Z,7.30
2018-03-21T22:06:46.420Z,7.30
2018-03-21T22:09:13.886Z,7.14
2018-03-21T22:11:42.212Z,7.14
2018-03-21T22:14:10.043Z,7.43
2018-03-21T22:16:37.501Z,7.18
2018-03-21T22:19:05.656Z,6.88
2018-03-21T22:21:33.959Z,6.69
2018-03-21T22:24:01.435Z,6.69
2018-03-21T22:26:28.921Z,6.96
2018-03-21T22:28:56.641Z,7.26
2018-03-21T22:31:24.114Z,7.35
2018-03-21T22:33:51.611Z,7.14
2018-03-21T22:36:19.342Z,6.90
2018-03-21T22:38:46.814Z,7.08
2018-03-21T22:41:14.265Z,7.35
2018-03-21T22:43:42.021Z,7.06
2018-03-21T22:46:09.479Z,6.88
2018-03-21T22:48:36.932Z,7.61
2018-03-21T22:51:04.707Z,6.82
2018-03-21T22:53:32.170Z,7.24
2018-03-21T22:55:59.648Z,7.58
2018-03-21T22:58:27.351Z,7.39
2018-03-21T23:00:54.815Z,7.09
2018-03-21T23:03:22.276Z,7.36
2018-03-21T23:05:50.387Z,7.44
2018-03-21T23:08:17.865Z,6.82
2018-03-21T23:10:45.332Z,6.41
2018-03-21T23:13:13.072Z,6.92
2018-03-21T23:15:40.529Z,6.99
2018-03-21T23:18:07.999Z,7.10
2018-03-21T23:20:36.073Z,6.84
2018-03-21T23:23:03.538Z,6.57
2018-03-21T23:25:30.992Z,6.86
2018-03-21T23:27:58.746Z,6.89
2018-03-21T23:30:26.207Z,7.09
2018-03-21T23:32:53.669Z,6.66
2018-03-21T23:35:21.443Z,6.08
2018-03-21T23:37:48.913Z,6.28
2018-03-21T23:40:16.380Z,6.76
2018-03-21T23:42:44.139Z,6.19
2018-03-21T23:45:11.618Z,6.98
2018-03-21T23:47:39.089Z,6.48
2018-03-21T23:50:06.825Z,6.48
2018-03-21T23:52:34.308Z,6.69
2018-03-21T23:55:01.782Z,6.82
2018-03-21T23:57:29.519Z,6.52
2018-03-21T23:59:56.985Z,6.87
